createdAt,value
2023-05-05T00:01:11.174Z,4.40
2023-05-05T00:04:17.201Z,4.38
2023-05-05T00:07:20.789Z,4.20
2023-05-05T00:10:24.483Z,4.10
2023-05-05T00:13:28.371Z,4.55
2023-05-05T00:16:32.716Z,4.45
2023-05-05T00:19:36.875Z,4.57
2023-05-05T00:22:44.345Z,4.53
2023-05-05T00:25:48.653Z,4.25
2023-05-05T00:28:56.855Z,4.03
2023-05-05T00:32:05.041Z,4.50
2023-05-05T00:35:09.856Z,4.60
2023-05-05T00:38:16.413Z,4.00
2023-05-05T00:41:22.048Z,4.15
2023-05-05T00:44:42.112Z,4.20
2023-05-05T00:47:54.629Z,4.20
2023-05-05T00:51:00.468Z,4.53
2023-05-05T00:54:10.891Z,4.28
2023-05-05T00:57:21.340Z,4.15
2023-05-05T01:00:28.712Z,4.17
2023-05-05T01:03:33.813Z,5.00
2023-05-05T01:07:16.735Z,4.45
2023-05-05T01:10:44.555Z,4.50
2023-05-05T01:14:05.125Z,4.43
2023-05-05T01:17:22.802Z,4.38
2023-05-05T01:21:07.692Z,4.60
2023-05-05T01:24:21.082Z,4.30
2023-05-05T01:27:38.707Z,4.47
2023-05-05T01:31:02.240Z,4.70
2023-05-05T01:34:15.140Z,4.43
2023-05-05T01:37:37.435Z,4.38
2023-05-05T01:40:49.514Z,4.40
2023-05-05T01:43:54.959Z,4.20
2023-05-05T01:47:01.774Z,4.20
2023-05-05T01:50:11.353Z,5.00
2023-05-05T01:53:18.488Z,4.70
2023-05-05T01:56:27.375Z,4.73
2023-05-05T01:59:34.400Z,5.03
2023-05-05T02:02:49.142Z,4.80
2023-05-05T02:06:03.628Z,5.07
2023-05-05T02:09:14.314Z,4.60
2023-05-05T02:12:32.679Z,4.80
2023-05-05T02:15:52.906Z,5.07
2023-05-05T02:19:07.298Z,4.75
2023-05-05T02:22:21.122Z,4.77
2023-05-05T02:25:42.238Z,4.93
2023-05-05T02:29:05.746Z,4.95
2023-05-05T02:32:35.553Z,4.90
2023-05-05T02:35:55.488Z,5.57
2023-05-05T02:39:09.721Z,5.43
2023-05-05T02:42:33.450Z,5.45
2023-05-05T02:45:38.990Z,5.03
2023-05-05T02:48:44.010Z,5.27
2023-05-05T02:52:06.113Z,5.35
2023-05-05T02:55:51.446Z,5.93
2023-05-05T02:59:22.670Z,5.77
2023-05-05T03:02:51.894Z,5.68
2023-05-05T03:06:03.337Z,5.65
2023-05-05T03:09:13.641Z,5.53
2023-05-05T03:12:25.930Z,5.80
2023-05-05T03:15:49.412Z,5.55
2023-05-05T03:19:10.082Z,5.35
2023-05-05T03:22:37.983Z,5.40
2023-05-05T03:25:51.400Z,6.37
2023-05-05T03:29:07.484Z,5.57
2023-05-05T03:32:33.789Z,5.38
2023-05-05T03:35:51.377Z,5.72
2023-05-05T03:39:16.973Z,5.80
2023-05-05T03:42:36.108Z,5.60
2023-05-05T03:46:01.831Z,6.07
2023-05-05T03:49:53.202Z,5.68
2023-05-05T03:53:06.412Z,5.40
2023-05-05T03:56:20.728Z,5.43
2023-05-05T03:59:28.913Z,5.65
2023-05-05T04:02:34.597Z,5.47
2023-05-05T04:05:41.610Z,5.37
2023-05-05T04:08:56.756Z,5.38
2023-05-05T04:12:03.322Z,5.45
2023-05-05T04:15:11.657Z,4.95
2023-05-05T04:18:29.018Z,5.30
2023-05-05T04:21:36.391Z,5.03
2023-05-05T04:24:41.302Z,5.10
2023-05-05T04:27:48.985Z,5.45
2023-05-05T04:30:57.086Z,5.83
2023-05-05T04:34:02.300Z,5.73
2023-05-05T04:37:06.397Z,5.68
2023-05-05T04:40:11.421Z,5.47
2023-05-05T04:43:17.151Z,5.30
2023-05-05T04:46:25.454Z,5.10
2023-05-05T04:49:36.704Z,4.78
2023-05-05T04:52:43.225Z,4.93
2023-05-05T04:55:50.680Z,5.37
2023-05-05T04:59:02.317Z,5.80
2023-05-05T05:02:06.774Z,6.20
2023-05-05T05:05:11.159Z,5.65
2023-05-05T05:08:23.129Z,5.97
2023-05-05T05:11:29.673Z,5.57
2023-05-05T05:14:38.905Z,5.45
2023-05-05T05:18:01.458Z,4.85
2023-05-05T05:21:06.086Z,5.20
2023-05-05T05:24:21.432Z,5.70
2023-05-05T05:27:24.498Z,5.13
2023-05-05T05:30:30.331Z,4.90
2023-05-05T05:33:34.341Z,4.68
2023-05-05T05:36:38.164Z,4.90
2023-05-05T05:39:44.003Z,4.50
2023-05-05T05:42:52.513Z,4.70
2023-05-05T05:46:09.180Z,4.90
2023-05-05T05:49:16.514Z,4.80
2023-05-05T05:52:23.727Z,4.90
2023-05-05T05:55:27.748Z,5.50
2023-05-05T05:58:32.102Z,4.72
2023-05-05T06:02:06.488Z,5.10
2023-05-05T06:05:11.438Z,4.80
2023-05-05T06:08:15.900Z,4.60
2023-05-05T06:11:28.899Z,5.10
2023-05-05T06:14:32.537Z,4.72
2023-05-05T06:17:37.007Z,4.28
2023-05-05T06:20:50.140Z,5.47
2023-05-05T06:23:57.721Z,4.53
2023-05-05T06:27:03.702Z,5.00
2023-05-05T06:30:10.389Z,4.40
2023-05-05T06:33:15.024Z,4.20
2023-05-05T06:36:21.804Z,4.38
2023-05-05T06:39:26.145Z,4.30
2023-05-05T06:42:31.164Z,4.70
2023-05-05T06:45:36.441Z,4.40
2023-05-05T06:48:45.962Z,5.20
2023-05-05T06:51:51.500Z,4.60
2023-05-05T06:54:55.235Z,4.23
2023-05-05T06:57:58.570Z,5.03
2023-05-05T07:01:05.632Z,4.70
2023-05-05T07:04:08.981Z,4.50
2023-05-05T07:07:15.108Z,4.40
2023-05-05T07:10:19.314Z,4.70
2023-05-05T07:17:06.511Z,4.40
2023-05-05T07:20:11.135Z,4.80
2023-05-05T07:23:19.198Z,4.55
2023-05-05T07:26:27.490Z,4.67
2023-05-05T07:29:35.631Z,4.40
2023-05-05T07:32:44.786Z,4.35
2023-05-05T07:35:48.546Z,4.95
2023-05-05T07:42:15.002Z,5.13
2023-05-05T07:46:01.311Z,4.23
2023-05-05T07:49:09.704Z,4.80
2023-05-05T07:52:25.215Z,4.70
2023-05-05T07:55:44.960Z,4.75
2023-05-05T07:58:49.173Z,4.30
2023-05-05T08:01:56.689Z,4.57
2023-05-05T08:05:02.439Z,4.22
2023-05-05T08:08:07.339Z,4.40
2023-05-05T08:11:24.547Z,4.80
2023-05-05T08:14:32.231Z,4.43
2023-05-05T08:17:53.213Z,4.50
2023-05-05T08:21:01.458Z,4.68
2023-05-05T08:24:30.399Z,4.57
2023-05-05T08:27:44.546Z,4.50
2023-05-05T08:31:12.916Z,4.23
2023-05-05T08:34:21.702Z,4.90
2023-05-05T08:37:45.658Z,4.53
2023-05-05T08:44:36.009Z,4.38
2023-05-05T08:47:45.072Z,4.63
2023-05-05T08:50:59.907Z,4.83
2023-05-05T08:54:52.669Z,4.25
2023-05-05T08:58:11.814Z,4.40
2023-05-05T09:01:27.396Z,4.32
2023-05-05T09:04:40.523Z,3.93
2023-05-05T09:07:48.100Z,4.17
2023-05-05T09:11:08.120Z,4.00
2023-05-05T09:14:35.197Z,4.13
2023-05-05T09:44:46.957Z,3.80
2023-05-05T09:48:00.898Z,3.83
2023-05-05T09:51:34.862Z,3.60
2023-05-05T09:55:21.217Z,4.10
2023-05-05T09:58:31.799Z,3.50
2023-05-05T10:01:49.706Z,3.30
2023-05-05T10:05:13.599Z,3.42
2023-05-05T10:08:22.123Z,3.30
2023-05-05T10:12:02.015Z,3.50
2023-05-05T10:15:19.679Z,3.70
2023-05-05T10:18:38.663Z,4.63
2023-05-05T10:21:52.263Z,4.35
2023-05-05T10:25:23.167Z,3.63
2023-05-05T10:28:35.246Z,3.70
2023-05-05T10:32:10.224Z,3.53
2023-05-05T10:35:36.017Z,3.90
2023-05-05T10:38:39.944Z,3.95
2023-05-05T10:41:44.240Z,3.10
2023-05-05T10:44:49.824Z,2.97
2023-05-05T10:47:57.466Z,2.95
2023-05-05T10:51:38.438Z,2.80
2023-05-05T10:55:07.566Z,2.30
2023-05-05T10:58:43.707Z,3.20
2023-05-05T11:01:52.955Z,2.60
2023-05-05T11:05:18.424Z,2.40
2023-05-05T11:08:27.004Z,2.30
2023-05-05T11:12:06.615Z,2.13
2023-05-05T11:15:49.582Z,2.07
2023-05-05T11:18:52.760Z,2.30
2023-05-05T11:22:05.410Z,2.35
2023-05-05T11:25:45.778Z,1.83
2023-05-05T11:29:03.188Z,2.05
2023-05-05T11:32:13.962Z,2.50
2023-05-05T11:35:17.383Z,2.30
2023-05-05T11:38:41.580Z,1.92
2023-05-05T11:41:50.759Z,2.30
2023-05-05T11:44:55.298Z,2.38
2023-05-05T11:49:22.175Z,2.10
2023-05-05T11:52:27.247Z,2.00
2023-05-05T11:55:31.114Z,2.20
2023-05-05T11:58:34.894Z,1.83
2023-05-05T12:01:42.149Z,2.30
2023-05-05T12:04:45.797Z,2.10
2023-05-05T12:07:58.768Z,2.03
2023-05-05T12:11:09.589Z,2.00
2023-05-05T12:14:13.314Z,2.00
2023-05-05T12:17:18.916Z,2.10
2023-05-05T12:20:31.838Z,2.50
2023-05-05T12:23:39.281Z,2.10
2023-05-05T12:26:42.966Z,2.30
2023-05-05T12:29:46.251Z,1.80
2023-05-05T12:32:51.204Z,1.80
2023-05-05T12:35:54.654Z,2.20
2023-05-05T12:38:58.559Z,2.40
2023-05-05T12:42:06.007Z,2.50
2023-05-05T12:45:18.010Z,2.30
2023-05-05T12:48:24.134Z,2.30
2023-05-05T12:51:33.168Z,2.30
2023-05-05T12:54:55.064Z,2.33
2023-05-05T12:58:04.830Z,2.38
2023-05-05T13:01:11.890Z,1.95
2023-05-05T13:04:16.471Z,2.10
2023-05-05T13:07:22.403Z,2.10
2023-05-05T13:10:25.688Z,1.90
2023-05-05T13:13:33.758Z,1.95
2023-05-05T13:16:37.486Z,2.00
2023-05-05T13:19:47.812Z,2.45
2023-05-05T13:22:54.463Z,2.10
2023-05-05T13:25:58.459Z,2.53
2023-05-05T13:29:02.146Z,2.20
2023-05-05T13:32:08.835Z,2.28
2023-05-05T13:35:13.316Z,2.80
2023-05-05T13:38:20.997Z,2.30
2023-05-05T13:41:26.014Z,2.40
2023-05-05T13:44:32.406Z,2.53
2023-05-05T13:47:35.895Z,2.45
2023-05-05T13:50:39.061Z,2.40
2023-05-05T13:53:46.089Z,2.47
2023-05-05T13:56:49.467Z,2.30
2023-05-05T13:59:54.800Z,2.17
2023-05-05T14:02:58.317Z,2.10
2023-05-05T14:06:01.564Z,2.20
2023-05-05T14:09:06.511Z,2.00
2023-05-05T14:12:10.004Z,2.30
2023-05-05T14:15:13.239Z,2.30
2023-05-05T14:18:16.695Z,2.30
2023-05-05T14:21:19.703Z,2.10
2023-05-05T14:24:22.778Z,2.13
2023-05-05T14:27:25.753Z,2.20
2023-05-05T14:30:29.199Z,2.17
2023-05-05T14:33:32.278Z,2.10
2023-05-05T14:36:35.178Z,2.08
2023-05-05T14:39:38.664Z,2.30
2023-05-05T14:42:42.366Z,2.10
2023-05-05T14:45:45.897Z,2.30
2023-05-05T14:48:49.113Z,2.30
2023-05-05T14:51:53.500Z,2.20
2023-05-05T14:54:58.429Z,2.37
2023-05-05T14:58:02.961Z,2.27
2023-05-05T15:01:06.448Z,2.40
2023-05-05T15:04:11.539Z,2.00
2023-05-05T15:07:30.496Z,2.30
2023-05-05T15:10:51.173Z,2.43
2023-05-05T15:14:16.437Z,2.40
2023-05-05T15:17:42.195Z,2.30
2023-05-05T15:20:49.164Z,2.10
2023-05-05T15:23:54.081Z,2.20
2023-05-05T15:26:57.358Z,2.63
2023-05-05T15:30:03.070Z,2.60
2023-05-05T15:33:07.533Z,2.20
2023-05-05T15:36:11.019Z,2.30
2023-05-05T15:39:13.983Z,2.30
2023-05-05T15:42:17.561Z,2.33
2023-05-05T15:45:20.917Z,2.60
2023-05-05T15:48:24.195Z,2.45
2023-05-05T15:51:27.708Z,2.17
2023-05-05T15:54:31.168Z,2.17
2023-05-05T15:57:34.991Z,2.60
2023-05-05T16:00:40.786Z,2.10
2023-05-05T16:03:57.200Z,2.63
2023-05-05T16:07:03.720Z,2.50
2023-05-05T16:10:10.887Z,2.30
2023-05-05T16:13:15.590Z,5.20
2023-05-05T16:16:18.740Z,2.30
2023-05-05T16:19:23.524Z,2.60
2023-05-05T16:22:27.120Z,2.33
2023-05-05T16:25:30.289Z,2.40
2023-05-05T16:28:34.425Z,2.20
2023-05-05T16:31:37.389Z,2.67
2023-05-05T16:34:40.232Z,2.90
2023-05-05T16:37:45.936Z,3.70
2023-05-05T16:40:48.798Z,3.40
2023-05-05T16:43:51.569Z,3.57
2023-05-05T16:46:54.430Z,3.20
2023-05-05T16:49:57.545Z,2.50
2023-05-05T16:53:00.284Z,2.22
2023-05-05T16:56:03.459Z,3.03
2023-05-05T16:59:09.437Z,4.00
2023-05-05T17:02:12.981Z,3.87
2023-05-05T17:05:17.716Z,3.20
2023-05-05T17:08:20.708Z,3.08
2023-05-05T17:11:23.432Z,2.88
2023-05-05T17:14:27.531Z,3.30
2023-05-05T17:17:30.535Z,3.43
2023-05-05T17:20:33.883Z,3.60
2023-05-05T17:23:36.970Z,3.00
2023-05-05T17:26:40.586Z,2.63
2023-05-05T17:29:44.142Z,2.70
2023-05-05T17:32:50.038Z,2.50
2023-05-05T17:35:53.002Z,2.80
2023-05-05T17:38:56.321Z,2.67
2023-05-05T17:41:59.908Z,2.63
2023-05-05T17:45:03.592Z,2.50
2023-05-05T17:48:06.669Z,2.90
2023-05-05T17:51:09.755Z,2.67
2023-05-05T17:54:12.989Z,3.33
2023-05-05T17:57:18.566Z,4.72
2023-05-05T18:00:22.356Z,6.47
2023-05-05T18:03:26.211Z,6.43
2023-05-05T18:06:29.703Z,6.57
2023-05-05T18:09:32.807Z,6.95
2023-05-05T18:12:35.819Z,7.78
2023-05-05T18:15:40.362Z,5.77
2023-05-05T18:18:43.643Z,5.60
2023-05-05T18:21:46.950Z,4.10
2023-05-05T18:24:49.877Z,4.35
2023-05-05T18:27:52.840Z,4.10
2023-05-05T18:30:55.877Z,4.83
2023-05-05T18:34:00.484Z,8.87
2023-05-05T18:37:03.292Z,8.05
2023-05-05T18:40:07.551Z,7.10
2023-05-05T18:43:11.256Z,5.38
2023-05-05T18:46:14.368Z,5.03
2023-05-05T18:49:17.436Z,7.17
2023-05-05T18:52:21.179Z,8.90
2023-05-05T18:55:24.403Z,6.28
2023-05-05T18:58:27.681Z,5.97
2023-05-05T19:01:31.288Z,7.00
2023-05-05T19:04:37.838Z,6.87
2023-05-05T19:07:41.062Z,7.70
2023-05-05T19:10:47.049Z,6.90
2023-05-05T19:13:50.070Z,4.95
2023-05-05T19:16:53.090Z,4.07
2023-05-05T19:19:55.967Z,3.80
2023-05-05T19:23:03.737Z,4.28
2023-05-05T19:26:07.149Z,3.67
2023-05-05T19:29:10.861Z,3.50
2023-05-05T19:32:13.690Z,3.37
2023-05-05T19:35:17.168Z,3.40
2023-05-05T19:38:20.143Z,3.47
2023-05-05T19:41:23.472Z,3.50
2023-05-05T19:44:26.485Z,3.78
2023-05-05T19:47:30.037Z,3.40
2023-05-05T19:50:33.189Z,3.37
2023-05-05T19:53:36.577Z,3.08
2023-05-05T19:56:40.603Z,3.00
2023-05-05T19:59:43.902Z,3.10
2023-05-05T20:02:49.223Z,2.93
2023-05-05T20:05:55.080Z,3.20
2023-05-05T20:08:58.779Z,3.22
2023-05-05T20:12:02.382Z,2.90
2023-05-05T20:15:06.298Z,3.38
2023-05-05T20:18:13.259Z,3.30
2023-05-05T20:21:21.730Z,3.40
2023-05-05T20:24:33.207Z,3.33
2023-05-05T20:27:46.107Z,3.40
2023-05-05T20:30:52.555Z,2.97
2023-05-05T20:33:59.424Z,3.40
2023-05-05T20:37:04.501Z,3.00
2023-05-05T20:40:09.047Z,3.17
2023-05-05T20:43:15.940Z,3.00
2023-05-05T20:46:20.835Z,3.20
2023-05-05T20:49:32.116Z,3.30
2023-05-05T20:52:35.864Z,3.40
2023-05-05T20:55:39.952Z,4.00
2023-05-05T20:58:43.342Z,4.13
2023-05-05T21:01:46.679Z,4.75
2023-05-05T21:04:50.117Z,4.93
2023-05-05T21:07:54.726Z,5.17
2023-05-05T21:10:57.784Z,5.65
2023-05-05T21:14:04.444Z,6.68
2023-05-05T21:17:07.821Z,6.40
2023-05-05T21:20:12.056Z,6.10
2023-05-05T21:23:19.952Z,5.70
2023-05-05T21:26:25.581Z,6.50
2023-05-05T21:29:29.065Z,5.07
2023-05-05T21:32:32.175Z,4.90
2023-05-05T21:35:38.459Z,5.30
2023-05-05T21:38:41.842Z,6.20
2023-05-05T21:41:45.016Z,5.72
2023-05-05T21:44:48.498Z,5.93
2023-05-05T21:47:51.647Z,6.40
2023-05-05T21:50:59.874Z,5.90
2023-05-05T21:54:03.467Z,6.57
2023-05-05T21:57:07.364Z,5.72
2023-05-05T22:00:16.966Z,5.68
2023-05-05T22:03:20.363Z,5.35
2023-05-05T22:06:26.466Z,5.53
2023-05-05T22:09:29.483Z,4.63
2023-05-05T22:12:32.577Z,4.28
2023-05-05T22:15:46.175Z,4.60
2023-05-05T22:18:53.177Z,3.38
2023-05-05T22:21:57.757Z,3.57
2023-05-05T22:25:00.931Z,4.07
2023-05-05T22:28:04.438Z,3.90
2023-05-05T22:31:07.703Z,4.75
2023-05-05T22:34:11.983Z,4.78
2023-05-05T22:37:15.438Z,8.00
2023-05-05T22:40:25.552Z,7.87
2023-05-05T22:43:30.275Z,7.30
2023-05-05T22:46:34.110Z,6.90
2023-05-05T22:49:37.772Z,4.82
2023-05-05T22:52:43.011Z,5.30
2023-05-05T22:55:46.494Z,4.82
2023-05-05T22:58:49.882Z,5.30
2023-05-05T23:01:58.067Z,4.78
2023-05-05T23:05:01.768Z,5.20
2023-05-05T23:08:05.959Z,4.18
2023-05-05T23:11:13.022Z,4.35
2023-05-05T23:17:20.501Z,8.05
2023-05-05T23:20:23.748Z,6.60
2023-05-05T23:23:26.768Z,6.00
2023-05-05T23:26:29.528Z,5.50
2023-05-05T23:29:32.500Z,4.22
2023-05-05T23:32:35.483Z,5.13
2023-05-05T23:35:43.252Z,5.32
2023-05-05T23:38:47.248Z,5.22
2023-05-05T23:41:50.191Z,4.20
2023-05-05T23:44:53.407Z,5.07
2023-05-05T23:47:56.834Z,4.40
2023-05-05T23:51:00.025Z,5.00
2023-05-05T23:54:03.437Z,5.20
2023-05-05T23:57:06.920Z,5.28
